Time;durP1;ratioP1;P1;durP2;ratioP2;P2;SDS_P1;SDS_P2;PMS_P1;PMS_P2;Temp;Humidity;BMP_temperature;BMP_pressure;BME280_temperature;BME280_humidity;BME280_pressure;Samples;Min_cycle;Max_cycle;Signal;HPM_P1;HPM_P2
2023/03/27 00:02:08;;;;;;;16.00;12.30;;;;;;;4.02;80.97;98988.89;104448;279;121300;-57
2023/03/27 00:04:42;;;;;;;18.00;12.40;;;;;;;4.02;81.01;98992.64;104126;267;105357;-52
2023/03/27 00:07:18;;;;;;;18.70;13.00;;;;;;;4.00;81.00;98986.81;104063;279;113775;-52
2023/03/27 00:09:52;;;;;;;20.00;13.40;;;;;;;3.97;81.03;98984.50;104070;279;95561;-56
2023/03/27 00:12:26;;;;;;;19.80;13.00;;;;;;;3.96;81.06;98982.95;104468;279;97971;-52
2023/03/27 00:15:00;;;;;;;23.50;13.80;;;;;;;3.92;81.06;98982.81;104024;279;121175;-52
2023/03/27 00:17:34;;;;;;;22.90;13.90;;;;;;;3.90;81.10;98980.03;104069;279;102615;-57
2023/03/27 00:20:09;;;;;;;20.70;14.70;;;;;;;3.92;81.26;98981.21;104472;279;115032;-57
2023/03/27 00:22:44;;;;;;;23.30;14.50;;;;;;;3.93;81.28;98977.72;104034;279;96007;-51
2023/03/27 00:25:18;;;;;;;25.90;15.60;;;;;;;3.96;81.32;98975.48;104076;279;98511;-52
2023/03/27 00:27:55;;;;;;;22.80;14.80;;;;;;;3.95;81.37;98976.39;104060;279;120558;-57
2023/03/27 00:30:30;;;;;;;23.50;15.30;;;;;;;3.96;81.30;98974.37;104072;279;106284;-57
2023/03/27 00:33:04;;;;;;;24.30;15.30;;;;;;;3.96;81.33;98969.31;104068;279;114491;-51
2023/03/27 00:35:38;;;;;;;21.70;14.70;;;;;;;3.93;81.39;98969.86;104098;279;92376;-52
2023/03/27 00:38:12;;;;;;;25.40;16.50;;;;;;;3.91;81.42;98968.87;104112;279;97560;-53
2023/03/27 00:40:48;;;;;;;22.40;15.30;;;;;;;3.89;81.30;98967.36;104066;279;120248;-52
2023/03/27 00:43:28;;;;;;;24.10;14.90;;;;;;;3.86;81.25;98968.67;104082;279;105612;-52
2023/03/27 00:46:08;;;;;;;22.90;15.20;;;;;;;3.79;81.22;98963.25;104469;279;115253;-52
2023/03/27 00:48:43;;;;;;;22.90;15.70;;;;;;;3.73;81.33;98958.39;103833;280;95491;-51
2023/03/27 00:51:18;;;;;;;23.60;16.10;;;;;;;3.72;81.37;98958.56;104085;279;97325;-52
2023/03/27 00:53:53;;;;;;;23.20;15.80;;;;;;;3.69;81.34;98953.73;104461;279;120233;-52
2023/03/27 00:56:25;;;;;;;;;;;;;;;3.66;81.32;98949.73;104474;279;105709;-52
2023/03/27 00:59:03;;;;;;;22.10;17.30;;;;;;;3.57;81.49;98948.43;104063;279;113344;-52
2023/03/27 01:01:37;;;;;;;25.30;17.20;;;;;;;3.50;81.48;98945.68;104068;279;92821;-51
2023/03/27 01:04:11;;;;;;;24.90;17.20;;;;;;;3.44;81.41;98945.13;104077;278;96469;-52
2023/03/27 01:06:45;;;;;;;24.40;16.60;;;;;;;3.39;81.39;98940.90;104412;279;121937;-52
2023/03/27 01:09:20;;;;;;;24.50;17.60;;;;;;;3.34;81.34;98934.81;104438;279;106365;-52
2023/03/27 01:12:06;;;;;;;;;;;;;;;3.25;81.37;98938.10;104079;279;113237;-52
2023/03/27 01:14:52;;;;;;;25.50;16.50;;;;;;;3.14;81.49;98942.86;104023;279;95165;-56
2023/03/27 01:17:42;;;;;;;25.60;16.60;;;;;;;3.03;81.66;98946.91;104055;279;96269;-52
2023/03/27 01:21:01;;;;;;;23.60;16.00;;;;;;;2.96;81.61;98950.89;104060;279;119127;-53
2023/03/27 01:24:11;;;;;;;21.80;15.70;;;;;;;2.95;81.70;98951.09;103864;280;105363;-57
2023/03/27 01:27:04;;;;;;;24.40;17.00;;;;;;;2.92;81.71;98955.31;103794;279;114000;-57
2023/03/27 01:30:02;;;;;;;26.30;17.60;;;;;;;2.87;81.77;98959.14;104059;279;93122;-52
2023/03/27 01:33:09;;;;;;;27.10;17.80;;;;;;;2.77;81.89;98954.80;104071;279;96627;-52
2023/03/27 01:36:15;;;;;;;25.60;16.70;;;;;;;2.74;81.84;98951.63;104056;279;121067;-51
2023/03/27 01:39:17;;;;;;;23.50;16.20;;;;;;;2.66;81.85;98943.42;104063;279;104127;-56
2023/03/27 01:42:00;;;;;;;23.30;15.90;;;;;;;2.58;81.86;98942.58;104023;279;113525;-56
2023/03/27 01:44:46;;;;;;;23.90;15.30;;;;;;;2.55;81.92;98947.42;104048;279;95576;-52
2023/03/27 01:47:41;;;;;;;22.30;15.80;;;;;;;2.52;81.85;98953.80;104047;279;95882;-53
2023/03/27 01:50:22;;;;;;;21.30;15.20;;;;;;;2.41;81.97;98959.88;104028;275;120372;-57
2023/03/27 01:53:07;;;;;;;24.70;15.40;;;;;;;2.36;82.03;98960.49;104070;279;104857;-53
2023/03/27 01:55:46;;;;;;;21.70;15.30;;;;;;;2.33;82.14;98966.39;104046;279;114249;-53
2023/03/27 01:58:23;;;;;;;21.90;14.90;;;;;;;2.33;82.21;98970.29;104126;277;91740;-53
2023/03/27 02:01:01;;;;;;;21.30;15.20;;;;;;;2.29;82.15;98970.77;104076;278;96882;-53
2023/03/27 02:03:40;;;;;;;22.80;15.10;;;;;;;2.19;82.17;98969.73;104065;278;120512;-57
2023/03/27 02:06:17;;;;;;;22.00;13.60;;;;;;;2.14;82.28;98969.13;104089;278;105148;-56
2023/03/27 02:08:58;;;;;;;21.90;13.70;;;;;;;2.08;82.20;98974.43;104502;271;114577;-57
2023/03/27 02:11:37;;;;;;;18.10;12.90;;;;;;;2.03;82.32;98968.35;104502;278;94466;-57
2023/03/27 02:14:17;;;;;;;21.00;12.20;;;;;;;2.02;82.52;98972.95;104055;278;96637;-57
2023/03/27 02:16:56;;;;;;;21.40;14.10;;;;;;;2.03;82.44;98967.00;104528;278;121850;-57
2023/03/27 02:19:37;;;;;;;21.50;14.40;;;;;;;2.03;82.44;98969.85;104532;278;105612;-52
2023/03/27 02:22:11;;;;;;;26.40;14.80;;;;;;;2.01;82.55;98969.29;104516;278;114777;-52
2023/03/27 02:24:47;;;;;;;21.10;14.30;;;;;;;2.01;82.67;98970.52;104071;278;91821;-53
2023/03/27 02:27:33;;;;;;;19.90;13.80;;;;;;;1.97;82.79;98968.73;103934;278;98549;-54
2023/03/27 02:30:20;;;;;;;19.50;14.10;;;;;;;1.97;82.55;98969.80;104488;278;120690;-57
2023/03/27 02:33:03;;;;;;;19.60;13.40;;;;;;;1.93;82.62;98968.61;104497;286;105433;-53
2023/03/27 02:35:46;;;;;;;20.90;14.00;;;;;;;1.88;82.55;98971.52;104477;278;113543;-52
2023/03/27 02:38:27;;;;;;;21.60;13.40;;;;;;;1.79;82.58;98974.82;104512;278;95390;-58
2023/03/27 02:41:13;;;;;;;18.50;13.80;;;;;;;1.67;82.69;98976.42;104477;278;97043;-58
2023/03/27 02:43:55;;;;;;;20.20;14.20;;;;;;;1.62;82.69;98978.10;104083;278;121390;-57
2023/03/27 02:46:34;;;;;;;17.70;12.20;;;;;;;1.55;82.87;98981.93;104081;278;104584;-57
2023/03/27 02:49:15;;;;;;;20.30;13.50;;;;;;;1.50;82.95;98980.52;104068;274;114539;-57
2023/03/27 02:51:54;;;;;;;16.80;12.80;;;;;;;1.52;82.98;98979.05;104098;278;92345;-56
2023/03/27 02:54:34;;;;;;;20.30;13.70;;;;;;;1.48;83.07;98978.61;104531;278;96835;-52
2023/03/27 02:57:14;;;;;;;19.00;13.50;;;;;;;1.48;83.20;98978.86;104079;278;119719;-52
2023/03/27 02:59:54;;;;;;;20.00;13.90;;;;;;;1.44;83.32;98975.28;104057;278;104300;-56
2023/03/27 03:02:32;;;;;;;20.10;13.50;;;;;;;1.45;83.45;98978.03;104047;278;113728;-59
2023/03/27 03:05:16;;;;;;;20.70;13.90;;;;;;;1.47;83.38;98974.05;104072;278;96223;-57
2023/03/27 03:07:53;;;;;;;21.30;13.40;;;;;;;1.45;83.40;98985.26;104052;278;98365;-52
2023/03/27 03:10:28;;;;;;;20.30;13.40;;;;;;;1.44;83.41;98990.34;104103;278;119725;-52
2023/03/27 03:13:02;;;;;;;19.20;12.70;;;;;;;1.40;83.34;98992.52;104521;267;105907;-52
2023/03/27 03:15:35;;;;;;;;;;;;;;;1.32;83.32;98992.23;104066;278;113123;-52
2023/03/27 03:18:09;;;;;;;19.70;13.50;;;;;;;1.25;83.45;98988.40;104524;278;96089;-52
2023/03/27 03:20:44;;;;;;;18.90;13.50;;;;;;;1.20;83.38;98987.13;104101;278;95865;-52
2023/03/27 03:23:18;;;;;;;20.40;13.40;;;;;;;1.18;83.42;98981.20;104542;278;121590;-55
2023/03/27 03:25:55;;;;;;;21.20;14.40;;;;;;;1.16;83.35;98977.41;103932;279;103740;-56
2023/03/27 03:28:29;;;;;;;20.60;14.40;;;;;;;1.13;83.46;98977.77;104099;278;113015;-51
2023/03/27 03:31:03;;;;;;;22.40;15.40;;;;;;;1.14;83.52;98976.98;104066;278;94342;-51
2023/03/27 03:33:36;;;;;;;;;;;;;;;1.17;83.78;98977.13;104526;278;97854;-56
2023/03/27 03:36:13;;;;;;;20.60;14.10;;;;;;;1.18;83.84;98971.93;104059;278;120293;-57
2023/03/27 03:38:47;;;;;;;20.90;15.00;;;;;;;1.23;83.88;98970.35;104054;278;106566;-52
2023/03/27 03:41:21;;;;;;;20.70;14.50;;;;;;;1.24;83.89;98971.64;104067;278;114322;-52
2023/03/27 03:43:55;;;;;;;20.20;13.30;;;;;;;1.29;84.01;98972.14;104497;278;94761;-52
2023/03/27 03:46:29;;;;;;;21.30;14.50;;;;;;;1.33;84.14;98975.63;104068;278;97865;-53
2023/03/27 03:49:04;;;;;;;24.10;15.40;;;;;;;1.41;84.43;98975.77;104054;278;120451;-58
2023/03/27 03:51:38;;;;;;;26.10;16.10;;;;;;;1.53;84.53;98976.70;104523;278;105486;-58
2023/03/27 03:54:12;;;;;;;22.20;15.30;;;;;;;1.61;84.58;98983.98;104063;278;114827;-53
2023/03/27 03:56:47;;;;;;;23.50;16.20;;;;;;;1.68;84.83;98984.81;104515;278;95904;-53
2023/03/27 03:59:22;;;;;;;24.00;15.70;;;;;;;1.83;84.71;98985.23;104515;278;97671;-53
2023/03/27 04:01:56;;;;;;;24.60;16.50;;;;;;;1.93;84.71;98986.02;104511;278;119625;-53
2023/03/27 04:04:30;;;;;;;27.60;18.10;;;;;;;2.02;84.71;98986.77;103944;278;106886;-57
2023/03/27 04:07:05;;;;;;;27.80;18.60;;;;;;;2.09;84.99;98992.55;104078;278;114361;-57
2023/03/27 04:09:39;;;;;;;28.20;17.80;;;;;;;2.15;85.07;98996.52;104521;279;96212;-53
2023/03/27 04:12:13;;;;;;;31.10;19.90;;;;;;;2.20;84.99;98998.11;104520;278;97277;-52
2023/03/27 04:14:48;;;;;;;24.50;18.00;;;;;;;2.26;85.06;98994.23;104068;278;120732;-52
2023/03/27 04:17:25;;;;;;;26.20;17.60;;;;;;;2.27;85.21;98994.07;104068;278;106058;-54
2023/03/27 04:19:59;;;;;;;25.10;17.60;;;;;;;2.27;85.43;98997.43;104502;278;114291;-57
2023/03/27 04:22:37;;;;;;;28.60;18.80;;;;;;;2.32;85.50;99001.43;104042;278;95230;-57
2023/03/27 04:25:12;;;;;;;31.70;19.90;;;;;;;2.41;85.72;99006.54;104535;278;97223;-57
2023/03/27 04:27:50;;;;;;;30.40;20.80;;;;;;;2.51;85.57;99009.14;104515;278;121242;-57
2023/03/27 04:30:26;;;;;;;30.90;20.30;;;;;;;2.63;85.45;99010.45;104521;282;104841;-57
2023/03/27 04:33:00;;;;;;;35.10;21.60;;;;;;;2.66;85.42;99012.79;104081;278;113956;-56
2023/03/27 04:35:34;;;;;;;29.20;20.30;;;;;;;2.68;85.47;99018.60;104070;278;95411;-56
2023/03/27 04:38:08;;;;;;;30.60;19.40;;;;;;;2.75;85.45;99020.02;104527;278;97735;-53
2023/03/27 04:40:44;;;;;;;25.70;16.90;;;;;;;2.79;85.40;99022.98;104520;278;120937;-53
2023/03/27 04:43:19;;;;;;;28.20;17.00;;;;;;;2.85;85.45;99025.36;104120;278;105840;-53
2023/03/27 04:45:53;;;;;;;27.00;17.20;;;;;;;2.85;85.60;99028.63;104069;278;114378;-52
2023/03/27 04:48:26;;;;;;;;;;;;;;;2.87;85.42;99030.70;104524;278;95654;-51
2023/03/27 04:51:00;;;;;;;28.10;16.40;;;;;;;2.88;85.28;99032.25;104087;278;97499;-51
2023/03/27 04:53:35;;;;;;;23.20;14.90;;;;;;;2.91;85.26;99033.98;103917;279;121259;-58
2023/03/27 04:56:10;;;;;;;23.40;15.60;;;;;;;2.94;85.41;99032.31;104104;278;106010;-58
2023/03/27 04:58:45;;;;;;;22.70;14.30;;;;;;;3.04;85.38;99036.83;104099;278;113553;-58
2023/03/27 05:01:19;;;;;;;23.80;15.80;;;;;;;3.10;85.61;99034.91;104085;279;93549;-56
2023/03/27 05:03:52;;;;;;;;;;;;;;;3.18;85.68;99028.31;104107;278;96948;-52
2023/03/27 05:06:27;;;;;;;21.30;16.30;;;;;;;3.30;85.90;99028.69;104075;278;120515;-53
2023/03/27 05:09:01;;;;;;;17.60;13.10;;;;;;;3.43;85.87;99025.73;104512;278;105280;-56
2023/03/27 05:11:36;;;;;;;18.70;12.80;;;;;;;3.58;85.86;99031.04;104519;278;115454;-56
2023/03/27 05:14:10;;;;;;;15.90;12.50;;;;;;;3.78;85.89;99031.66;104106;278;95739;-57
2023/03/27 05:16:44;;;;;;;19.60;13.30;;;;;;;3.92;85.85;99033.10;104086;278;97795;-57
2023/03/27 05:19:19;;;;;;;17.80;12.80;;;;;;;4.02;86.03;99031.91;104097;278;119476;-57
2023/03/27 05:21:53;;;;;;;22.40;15.00;;;;;;;4.12;86.10;99034.27;104109;278;105504;-57
2023/03/27 05:24:27;;;;;;;25.10;16.60;;;;;;;4.25;86.04;99034.13;104103;278;113727;-52
2023/03/27 05:27:01;;;;;;;31.00;21.10;;;;;;;4.36;86.10;99039.16;104075;278;95466;-53
2023/03/27 05:29:35;;;;;;;30.70;21.50;;;;;;;4.47;86.11;99035.02;104074;278;98058;-57
2023/03/27 05:32:10;;;;;;;27.30;17.90;;;;;;;4.57;86.01;99038.90;104506;278;119345;-57
2023/03/27 05:34:44;;;;;;;19.60;15.00;;;;;;;4.65;85.94;99035.20;104065;278;105373;-53
2023/03/27 05:37:18;;;;;;;;;;;;;;;4.73;85.78;99038.20;104076;278;113660;-54
2023/03/27 05:39:52;;;;;;;15.90;11.00;;;;;;;4.77;85.87;99039.78;104535;279;96062;-59
2023/03/27 05:42:26;;;;;;;14.30;10.60;;;;;;;4.75;85.90;99041.90;104536;278;98614;-53
2023/03/27 05:45:00;;;;;;;19.00;11.10;;;;;;;4.76;85.82;99049.44;104066;278;120947;-52
2023/03/27 05:47:42;;;;;;;15.90;10.90;;;;;;;4.78;85.77;99049.99;104095;278;105504;-54
2023/03/27 05:50:18;;;;;;;16.00;11.20;;;;;;;4.78;85.73;99053.34;104084;278;114209;-54
2023/03/27 05:52:58;;;;;;;15.70;11.80;;;;;;;4.79;85.68;99058.00;104535;278;95563;-56
2023/03/27 05:55:33;;;;;;;17.40;11.10;;;;;;;4.85;85.68;99060.59;104120;278;96269;-57
2023/03/27 05:58:08;;;;;;;;;;;;;;;4.89;85.54;99065.88;104048;278;120856;-59
2023/03/27 06:00:44;;;;;;;19.80;12.60;;;;;;;4.94;85.57;99068.11;104087;267;104381;-58
2023/03/27 06:03:19;;;;;;;18.00;11.90;;;;;;;5.03;85.49;99068.12;104052;278;112892;-54
2023/03/27 06:05:53;;;;;;;15.50;11.00;;;;;;;5.09;85.40;99075.36;104071;278;96918;-54
2023/03/27 06:08:27;;;;;;;14.00;9.50;;;;;;;5.17;85.32;99071.34;104102;278;96820;-53
2023/03/27 06:11:02;;;;;;;16.40;10.20;;;;;;;5.18;85.28;99070.36;104103;278;120856;-54
2023/03/27 06:13:36;;;;;;;15.40;9.50;;;;;;;5.39;85.34;99070.79;103908;280;103390;-52
2023/03/27 06:16:11;;;;;;;14.30;8.90;;;;;;;5.62;85.13;99072.05;104081;278;114020;-56
2023/03/27 06:18:45;;;;;;;14.20;9.80;;;;;;;5.69;84.80;99077.54;104047;278;93833;-52
2023/03/27 06:21:20;;;;;;;16.10;9.50;;;;;;;5.67;84.62;99075.36;104089;278;96198;-58
2023/03/27 06:23:55;;;;;;;13.20;8.80;;;;;;;5.80;84.59;99078.02;104073;278;118754;-56
2023/03/27 06:26:28;;;;;;;12.90;8.00;;;;;;;5.89;84.27;99077.02;104531;278;105427;-56
2023/03/27 06:29:03;;;;;;;17.80;7.50;;;;;;;5.95;84.14;99080.54;103902;280;114491;-53
2023/03/27 06:31:37;;;;;;;14.40;7.40;;;;;;;6.06;83.94;99084.02;104081;278;92893;-53
2023/03/27 06:34:13;;;;;;;11.50;7.40;;;;;;;6.15;83.89;99089.27;104067;278;97639;-53
2023/03/27 06:36:48;;;;;;;13.20;7.00;;;;;;;6.32;83.63;99089.81;104052;278;119796;-53
2023/03/27 06:39:22;;;;;;;14.30;7.70;;;;;;;6.51;83.63;99098.09;103903;279;106985;-58
2023/03/27 06:41:56;;;;;;;16.40;7.10;;;;;;;6.70;83.30;99100.72;104078;278;112954;-53
2023/03/27 06:44:30;;;;;;;9.50;5.60;;;;;;;6.81;82.93;99106.19;104523;278;95886;-53
2023/03/27 06:47:05;;;;;;;9.50;5.30;;;;;;;6.96;82.48;99109.39;104058;278;97437;-53
2023/03/27 06:49:39;;;;;;;10.50;5.40;;;;;;;7.12;82.14;99109.48;104093;278;120323;-53
2023/03/27 06:52:13;;;;;;;11.80;5.10;;;;;;;7.29;81.70;99110.30;104083;278;105704;-53
2023/03/27 06:54:47;;;;;;;10.50;4.90;;;;;;;7.41;81.09;99112.59;103920;279;114437;-52
2023/03/27 06:57:21;;;;;;;6.30;4.20;;;;;;;7.42;80.41;99113.67;104092;278;94814;-55
2023/03/27 06:59:56;;;;;;;8.60;4.50;;;;;;;7.32;80.07;99113.96;104088;278;96895;-52
2023/03/27 07:02:30;;;;;;;12.20;4.20;;;;;;;7.29;79.66;99122.45;104069;278;119000;-56
2023/03/27 07:05:04;;;;;;;8.50;4.40;;;;;;;7.28;79.21;99121.19;104083;278;105368;-56
2023/03/27 07:07:38;;;;;;;10.00;4.40;;;;;;;7.35;78.96;99121.98;104090;278;114664;-53
2023/03/27 07:10:14;;;;;;;10.30;5.20;;;;;;;7.53;78.65;99122.05;104049;278;94651;-53
2023/03/27 07:12:50;;;;;;;8.40;4.90;;;;;;;7.71;78.45;99126.38;104091;278;97789;-52
2023/03/27 07:15:26;;;;;;;11.90;5.10;;;;;;;7.94;77.92;99125.08;104087;278;121313;-55
2023/03/27 07:18:05;;;;;;;9.10;5.40;;;;;;;8.18;77.87;99128.77;104111;278;106157;-56
2023/03/27 07:20:40;;;;;;;8.70;4.90;;;;;;;8.88;77.90;99130.73;104544;278;114843;-56
2023/03/27 07:23:14;;;;;;;9.50;5.40;;;;;;;9.87;77.20;99128.73;104541;278;93216;-53
2023/03/27 07:25:50;;;;;;;12.40;4.70;;;;;;;10.09;76.38;99129.70;104095;278;96895;-53
2023/03/27 07:28:24;;;;;;;9.10;4.40;;;;;;;10.09;75.43;99131.82;104554;278;119810;-58
2023/03/27 07:30:58;;;;;;;7.20;3.40;;;;;;;10.19;74.87;99135.67;104084;278;103543;-58
2023/03/27 07:33:30;;;;;;;;;;;;;;;9.96;73.72;99143.09;104136;278;112832;-58
2023/03/27 07:36:08;;;;;;;5.90;3.30;;;;;;;9.49;72.99;99146.88;103668;278;568309;-58
2023/03/27 07:38:43;;;;;;;5.60;2.70;;;;;;;9.14;72.92;99143.70;103945;278;96438;-53
2023/03/27 07:41:17;;;;;;;8.30;4.00;;;;;;;9.13;72.86;99145.07;104527;278;121320;-55
2023/03/27 07:43:50;;;;;;;8.30;2.80;;;;;;;9.22;72.65;99147.05;103931;278;108580;-58
2023/03/27 07:46:25;;;;;;;7.20;3.10;;;;;;;9.27;72.11;99152.00;104068;278;114909;-58
2023/03/27 07:49:00;;;;;;;6.20;2.40;;;;;;;9.35;71.70;99155.88;104496;279;94360;-57
2023/03/27 07:51:34;;;;;;;8.20;2.70;;;;;;;9.18;71.31;99158.29;104141;278;97533;-57
2023/03/27 07:54:10;;;;;;;;;;;;;;;9.00;70.92;99159.44;104098;278;120975;-52
2023/03/27 07:56:46;;;;;;;6.30;2.90;;;;;;;8.94;71.04;99165.37;104124;278;104832;-52
2023/03/27 07:59:21;;;;;;;6.80;2.80;;;;;;;8.70;70.54;99171.96;103913;280;114175;-56
2023/03/27 08:01:56;;;;;;;5.50;2.30;;;;;;;8.59;70.58;99170.19;104052;278;95192;-57
2023/03/27 08:04:31;;;;;;;6.20;2.80;;;;;;;8.57;70.55;99169.23;103968;278;97657;-52
2023/03/27 08:07:05;;;;;;;6.80;2.70;;;;;;;8.60;70.39;99174.33;104106;278;120996;-52
2023/03/27 08:09:41;;;;;;;6.30;2.80;;;;;;;8.42;70.35;99179.04;103957;279;108217;-52
2023/03/27 08:12:18;;;;;;;5.20;2.50;;;;;;;8.22;70.38;99182.04;104092;278;115009;-52
2023/03/27 08:14:53;;;;;;;4.60;2.30;;;;;;;8.18;70.47;99188.33;104083;282;93584;-56
2023/03/27 08:17:29;;;;;;;4.50;2.30;;;;;;;8.25;70.60;99187.10;104125;278;96336;-57
2023/03/27 08:20:07;;;;;;;5.00;2.30;;;;;;;8.55;70.56;99189.02;104098;278;120205;-57
2023/03/27 08:22:41;;;;;;;6.00;3.20;;;;;;;8.76;70.18;99193.42;104114;278;104834;-56
2023/03/27 08:25:16;;;;;;;4.50;2.40;;;;;;;8.90;69.72;99202.08;104522;278;114172;-57
2023/03/27 08:27:50;;;;;;;5.90;2.50;;;;;;;8.95;69.65;99203.86;104530;278;93219;-53
2023/03/27 08:30:24;;;;;;;4.00;2.10;;;;;;;8.95;69.28;99212.61;104531;278;97887;-53
2023/03/27 08:33:01;;;;;;;4.70;2.20;;;;;;;8.69;69.00;99212.19;104511;278;118671;-58
2023/03/27 08:35:35;;;;;;;5.30;2.60;;;;;;;8.71;68.83;99210.29;104128;278;106289;-58
2023/03/27 08:38:09;;;;;;;3.80;2.00;;;;;;;8.66;68.42;99212.02;104090;278;115406;-59
2023/03/27 08:40:49;;;;;;;5.00;2.30;;;;;;;8.74;68.47;99212.69;104353;278;93238;-58
2023/03/27 08:43:26;;;;;;;7.40;2.40;;;;;;;8.84;68.56;99212.61;104101;278;97208;-53
2023/03/27 08:46:05;;;;;;;4.30;1.90;;;;;;;9.02;68.07;99216.75;104102;282;119286;-53
2023/03/27 08:48:47;;;;;;;4.80;2.30;;;;;;;8.83;68.00;99222.29;104526;278;104430;-53
2023/03/27 08:51:27;;;;;;;3.90;1.90;;;;;;;8.55;67.62;99228.65;104521;278;114389;-53
2023/03/27 08:54:08;;;;;;;3.70;2.10;;;;;;;8.24;67.73;99230.77;104509;278;95006;-53
2023/03/27 08:56:42;;;;;;;3.00;2.00;;;;;;;8.29;67.61;99235.51;104111;278;97642;-53
2023/03/27 08:59:18;;;;;;;4.60;2.00;;;;;;;8.29;67.75;99236.20;104081;278;119616;-53
2023/03/27 09:02:03;;;;;;;3.60;2.30;;;;;;;8.39;67.56;99242.33;104109;278;104668;-53
2023/03/27 09:04:45;;;;;;;4.40;2.60;;;;;;;8.36;67.49;99247.04;104509;278;113785;-53
2023/03/27 09:07:29;;;;;;;7.10;2.70;;;;;;;8.29;67.43;99248.84;104085;278;93914;-53
2023/03/27 09:10:12;;;;;;;4.90;2.20;;;;;;;8.15;67.38;99251.88;104109;278;99016;-57
2023/03/27 09:13:04;;;;;;;3.90;2.30;;;;;;;7.99;67.51;99252.56;104116;278;121014;-57
2023/03/27 09:15:46;;;;;;;3.30;2.00;;;;;;;7.99;67.32;99250.98;104111;278;104457;-57
2023/03/27 09:18:27;;;;;;;4.80;1.90;;;;;;;8.01;67.30;99253.56;104555;282;113754;-59
2023/03/27 09:21:07;;;;;;;5.40;2.30;;;;;;;7.85;67.19;99256.05;104592;278;92396;-58
2023/03/27 09:23:45;;;;;;;5.80;2.20;;;;;;;7.77;67.25;99256.21;104135;278;96446;-58
2023/03/27 09:26:24;;;;;;;5.40;2.60;;;;;;;7.72;67.04;99258.13;104148;278;118212;-58
2023/03/27 09:29:02;;;;;;;4.60;2.50;;;;;;;7.60;67.09;99262.75;104549;278;105805;-53
2023/03/27 09:31:43;;;;;;;6.40;2.60;;;;;;;7.54;66.92;99272.42;104080;278;115031;-52
2023/03/27 09:34:23;;;;;;;4.10;2.20;;;;;;;7.43;66.92;99275.77;104097;278;92590;-58
2023/03/27 09:37:01;;;;;;;4.50;2.40;;;;;;;7.38;66.87;99287.23;104122;278;96978;-58
2023/03/27 09:39:38;;;;;;;5.00;2.30;;;;;;;7.41;66.83;99293.13;104538;278;119495;-53
2023/03/27 09:42:19;;;;;;;3.70;1.90;;;;;;;7.32;66.79;99293.45;104538;267;104687;-53
2023/03/27 09:44:56;;;;;;;3.60;2.00;;;;;;;7.36;66.48;99295.65;104510;278;113125;-53
2023/03/27 09:47:36;;;;;;;3.50;1.80;;;;;;;7.39;66.01;99296.16;104054;278;93195;-53
2023/03/27 09:50:28;;;;;;;3.00;1.90;;;;;;;7.38;65.74;99296.29;104527;278;97472;-53
2023/03/27 09:53:14;;;;;;;4.60;2.50;;;;;;;7.35;65.46;99295.08;104096;278;120355;-58
2023/03/27 09:55:53;;;;;;;5.20;2.40;;;;;;;7.50;65.53;99291.98;104596;278;104247;-58
2023/03/27 09:58:39;;;;;;;3.50;1.90;;;;;;;7.65;65.72;99297.85;104080;278;113025;-57
2023/03/27 10:01:26;;;;;;;5.40;1.70;;;;;;;7.68;65.23;99297.39;104079;278;93753;-57
2023/03/27 10:04:01;;;;;;;4.90;1.90;;;;;;;7.57;65.12;99302.04;104134;278;98229;-57
2023/03/27 10:06:43;;;;;;;3.40;1.80;;;;;;;7.63;64.86;99303.56;104153;278;121382;-58
2023/03/27 10:09:26;;;;;;;3.90;2.00;;;;;;;7.64;64.82;99304.52;104102;278;106164;-57
2023/03/27 10:12:18;;;;;;;4.50;1.80;;;;;;;7.79;64.75;99308.45;104054;278;114924;-56
2023/03/27 10:14:53;;;;;;;4.20;2.30;;;;;;;7.99;64.54;99309.66;104046;279;93405;-53
2023/03/27 10:17:31;;;;;;;3.30;1.90;;;;;;;7.99;64.39;99319.70;104081;279;98316;-53
2023/03/27 10:20:12;;;;;;;4.50;2.10;;;;;;;8.00;64.14;99318.92;104451;279;120557;-53
2023/03/27 10:22:53;;;;;;;5.60;2.10;;;;;;;8.17;63.79;99319.75;104108;279;104323;-59
2023/03/27 10:25:33;;;;;;;4.30;2.10;;;;;;;8.33;63.27;99318.47;104056;279;115005;-59
2023/03/27 10:28:19;;;;;;;3.50;2.10;;;;;;;8.28;63.26;99312.55;104054;279;91618;-54
2023/03/27 10:31:01;;;;;;;3.70;1.90;;;;;;;8.40;63.10;99313.62;104470;279;97661;-52
2023/03/27 10:33:39;;;;;;;5.40;2.10;;;;;;;8.37;62.81;99315.23;104071;279;120383;-57
2023/03/27 10:36:14;;;;;;;6.10;2.30;;;;;;;8.37;62.67;99314.35;104045;279;105575;-56
2023/03/27 10:38:55;;;;;;;4.20;2.00;;;;;;;8.42;62.26;99312.30;104457;279;112224;-52
2023/03/27 10:41:31;;;;;;;5.60;2.10;;;;;;;8.58;62.55;99313.84;104032;279;93904;-53
2023/03/27 10:44:16;;;;;;;3.10;2.10;;;;;;;8.76;62.22;99315.33;104454;279;97409;-57
2023/03/27 10:46:50;;;;;;;4.00;1.80;;;;;;;8.85;61.65;99323.02;104461;279;120443;-57
2023/03/27 10:49:29;;;;;;;;;;;;;;;8.84;61.26;99321.60;104060;279;104832;-53
2023/03/27 10:52:18;;;;;;;3.80;2.00;;;;;;;8.64;61.07;99320.24;104050;279;114801;-53
2023/03/27 10:55:08;;;;;;;4.50;2.30;;;;;;;8.37;60.98;99316.14;104468;279;93846;-52
2023/03/27 10:57:48;;;;;;;3.80;2.30;;;;;;;8.38;60.78;99319.58;104077;279;97184;-53
2023/03/27 11:00:31;;;;;;;3.50;2.30;;;;;;;8.49;60.89;99324.21;104067;279;120874;-53
2023/03/27 11:03:13;;;;;;;3.30;2.20;;;;;;;8.38;60.09;99329.09;104080;279;106539;-58
2023/03/27 11:05:52;;;;;;;3.40;1.90;;;;;;;8.08;59.83;99327.20;104504;279;113487;-58
2023/03/27 11:08:33;;;;;;;4.80;2.30;;;;;;;8.05;60.11;99332.35;104084;279;92569;-57
2023/03/27 11:11:17;;;;;;;5.30;2.50;;;;;;;8.03;59.82;99329.37;104083;279;98195;-57
2023/03/27 11:13:51;;;;;;;3.50;2.10;;;;;;;8.11;59.84;99333.84;104106;279;119480;-52
2023/03/27 11:16:32;;;;;;;3.50;2.00;;;;;;;8.09;59.82;99339.63;104077;279;105404;-52
2023/03/27 11:19:32;;;;;;;3.30;2.10;;;;;;;7.88;59.05;99341.80;104079;279;113736;-53
2023/03/27 11:22:14;;;;;;;4.20;1.80;;;;;;;7.68;59.20;99342.51;104039;279;93855;-53
2023/03/27 11:24:56;;;;;;;3.00;2.00;;;;;;;7.92;59.18;99341.14;104095;279;98070;-58
2023/03/27 11:27:38;;;;;;;2.30;1.60;;;;;;;8.14;59.18;99344.86;104091;279;119175;-53
2023/03/27 11:30:38;;;;;;;3.40;1.80;;;;;;;8.26;58.95;99341.91;104076;279;105913;-52
2023/03/27 11:33:28;;;;;;;3.40;2.00;;;;;;;8.33;58.97;99343.02;104462;279;114010;-52
2023/03/27 11:36:15;;;;;;;3.40;1.70;;;;;;;8.30;59.02;99338.88;104060;279;92218;-53
2023/03/27 11:38:58;;;;;;;2.80;1.90;;;;;;;8.41;59.09;99343.80;104097;279;96118;-53
2023/03/27 11:41:32;;;;;;;2.70;1.90;;;;;;;8.61;59.11;99345.02;104468;279;120565;-52
2023/03/27 11:44:08;;;;;;;3.40;2.00;;;;;;;8.68;58.85;99338.11;104486;279;105236;-58
2023/03/27 11:47:12;;;;;;;4.00;1.80;;;;;;;8.73;58.81;99336.17;104083;279;113820;-58
2023/03/27 11:50:06;;;;;;;3.70;1.90;;;;;;;8.69;57.94;99332.80;104065;279;93323;-52
2023/03/27 11:52:52;;;;;;;2.60;1.60;;;;;;;8.63;57.65;99331.96;104056;279;97599;-54
2023/03/27 11:55:37;;;;;;;3.20;1.90;;;;;;;8.54;57.36;99329.36;104057;279;121044;-53
2023/03/27 11:58:25;;;;;;;3.00;2.00;;;;;;;8.50;57.50;99331.59;104085;279;104396;-57
2023/03/27 12:01:07;;;;;;;3.70;2.00;;;;;;;8.56;57.64;99337.27;104080;279;113661;-57
2023/03/27 12:04:15;;;;;;;4.40;2.30;;;;;;;8.73;57.68;99333.19;104072;279;93405;-58
2023/03/27 12:07:01;;;;;;;2.70;1.80;;;;;;;9.12;57.26;99331.19;104057;279;97775;-58
2023/03/27 12:10:00;;;;;;;4.50;2.10;;;;;;;9.35;57.07;99326.13;104078;279;120206;-58
2023/03/27 12:13:01;;;;;;;3.00;2.10;;;;;;;9.37;56.82;99332.05;104103;279;105449;-53
2023/03/27 12:16:01;;;;;;;4.60;2.00;;;;;;;9.18;56.12;99332.52;104457;279;114063;-52
2023/03/27 12:18:45;;;;;;;3.90;2.00;;;;;;;8.72;55.97;99334.91;104449;279;95197;-52
2023/03/27 12:21:30;;;;;;;2.30;1.40;;;;;;;8.51;55.96;99330.13;104057;279;98074;-52
2023/03/27 12:24:32;;;;;;;;;;;;;;;8.47;56.21;99328.80;104075;279;120872;-54
2023/03/27 12:27:31;;;;;;;2.70;1.40;;;;;;;8.35;55.88;99327.89;104042;279;104470;-53